sensor_id;sensor_type;location;lat;lon;timestamp;P1;durP1;ratioP1;P2;durP2;ratioP2
59052;SDS011;44843;44.728;10.396;2022-12-29T00:01:50;78.25;;;30.88;;
59052;SDS011;44843;44.728;10.396;2022-12-29T00:04:17;83.78;;;32.72;;
59052;SDS011;44843;44.728;10.396;2022-12-29T00:06:42;79.18;;;31.75;;
59052;SDS011;44843;44.728;10.396;2022-12-29T00:09:08;84.28;;;35.03;;
59052;SDS011;44843;44.728;10.396;2022-12-29T00:11:36;86.28;;;34.47;;
59052;SDS011;44843;44.728;10.396;2022-12-29T00:14:02;81.93;;;32.33;;
59052;SDS011;44843;44.728;10.396;2022-12-29T00:16:45;71.47;;;29.60;;
59052;SDS011;44843;44.728;10.396;2022-12-29T00:19:11;79.20;;;32.03;;
59052;SDS011;44843;44.728;10.396;2022-12-29T00:21:55;87.82;;;33.80;;
59052;SDS011;44843;44.728;10.396;2022-12-29T00:24:40;76.55;;;32.53;;
59052;SDS011;44843;44.728;10.396;2022-12-29T00:27:24;80.00;;;31.52;;
59052;SDS011;44843;44.728;10.396;2022-12-29T00:30:10;85.70;;;33.80;;
59052;SDS011;44843;44.728;10.396;2022-12-29T00:32:56;72.63;;;32.13;;
59052;SDS011;44843;44.728;10.396;2022-12-29T00:35:46;80.63;;;33.25;;
59052;SDS011;44843;44.728;10.396;2022-12-29T00:38:18;74.70;;;32.40;;
59052;SDS011;44843;44.728;10.396;2022-12-29T00:41:02;74.32;;;31.10;;
59052;SDS011;44843;44.728;10.396;2022-12-29T00:43:46;75.03;;;33.15;;
59052;SDS011;44843;44.728;10.396;2022-12-29T00:46:30;75.80;;;31.38;;
59052;SDS011;44843;44.728;10.396;2022-12-29T00:48:56;79.72;;;31.63;;
59052;SDS011;44843;44.728;10.396;2022-12-29T00:51:40;75.82;;;31.70;;
59052;SDS011;44843;44.728;10.396;2022-12-29T00:54:06;77.68;;;31.90;;
59052;SDS011;44843;44.728;10.396;2022-12-29T00:56:31;74.50;;;32.97;;
59052;SDS011;44843;44.728;10.396;2022-12-29T00:59:04;76.43;;;33.10;;
59052;SDS011;44843;44.728;10.396;2022-12-29T01:01:31;72.97;;;32.00;;
59052;SDS011;44843;44.728;10.396;2022-12-29T01:03:57;81.78;;;32.22;;
59052;SDS011;44843;44.728;10.396;2022-12-29T01:06:22;75.28;;;31.80;;
59052;SDS011;44843;44.728;10.396;2022-12-29T01:08:48;79.32;;;32.78;;
59052;SDS011;44843;44.728;10.396;2022-12-29T01:11:33;76.40;;;30.25;;
59052;SDS011;44843;44.728;10.396;2022-12-29T01:13:59;74.78;;;31.42;;
59052;SDS011;44843;44.728;10.396;2022-12-29T01:16:24;81.43;;;34.65;;
59052;SDS011;44843;44.728;10.396;2022-12-29T01:18:49;80.70;;;32.97;;
59052;SDS011;44843;44.728;10.396;2022-12-29T01:21:15;79.68;;;32.78;;
59052;SDS011;44843;44.728;10.396;2022-12-29T01:23:40;76.05;;;32.53;;
59052;SDS011;44843;44.728;10.396;2022-12-29T01:26:10;77.30;;;33.72;;
59052;SDS011;44843;44.728;10.396;2022-12-29T01:28:36;83.30;;;33.53;;
59052;SDS011;44843;44.728;10.396;2022-12-29T01:31:03;80.28;;;33.35;;
59052;SDS011;44843;44.728;10.396;2022-12-29T01:33:29;78.47;;;32.97;;
59052;SDS011;44843;44.728;10.396;2022-12-29T01:35:57;73.82;;;32.25;;
59052;SDS011;44843;44.728;10.396;2022-12-29T01:38:25;82.40;;;33.50;;
59052;SDS011;44843;44.728;10.396;2022-12-29T01:40:51;80.28;;;33.80;;
59052;SDS011;44843;44.728;10.396;2022-12-29T01:43:16;69.38;;;32.25;;
59052;SDS011;44843;44.728;10.396;2022-12-29T01:45:51;74.68;;;33.45;;
59052;SDS011;44843;44.728;10.396;2022-12-29T01:48:18;82.38;;;33.53;;
59052;SDS011;44843;44.728;10.396;2022-12-29T01:50:46;77.97;;;33.20;;
59052;SDS011;44843;44.728;10.396;2022-12-29T01:53:24;77.50;;;33.60;;
59052;SDS011;44843;44.728;10.396;2022-12-29T01:55:56;83.20;;;34.22;;
59052;SDS011;44843;44.728;10.396;2022-12-29T01:58:26;81.03;;;34.25;;
59052;SDS011;44843;44.728;10.396;2022-12-29T02:00:56;78.93;;;34.45;;
59052;SDS011;44843;44.728;10.396;2022-12-29T02:03:21;76.38;;;33.90;;
59052;SDS011;44843;44.728;10.396;2022-12-29T02:08:34;81.75;;;33.65;;
59052;SDS011;44843;44.728;10.396;2022-12-29T02:11:00;77.80;;;33.78;;
59052;SDS011;44843;44.728;10.396;2022-12-29T02:13:26;78.00;;;33.58;;
59052;SDS011;44843;44.728;10.396;2022-12-29T02:16:05;82.72;;;34.17;;
59052;SDS011;44843;44.728;10.396;2022-12-29T02:27:04;81.72;;;34.08;;
59052;SDS011;44843;44.728;10.396;2022-12-29T02:35:05;83.43;;;35.03;;
59052;SDS011;44843;44.728;10.396;2022-12-29T02:40:06;80.32;;;34.33;;
59052;SDS011;44843;44.728;10.396;2022-12-29T02:45:33;79.32;;;33.83;;
59052;SDS011;44843;44.728;10.396;2022-12-29T02:50:44;78.40;;;32.80;;
59052;SDS011;44843;44.728;10.396;2022-12-29T02:53:18;78.40;;;34.40;;
59052;SDS011;44843;44.728;10.396;2022-12-29T02:56:06;85.53;;;35.05;;
59052;SDS011;44843;44.728;10.396;2022-12-29T02:58:31;84.93;;;34.00;;
59052;SDS011;44843;44.728;10.396;2022-12-29T03:01:31;78.10;;;33.55;;
59052;SDS011;44843;44.728;10.396;2022-12-29T03:04:39;80.00;;;34.60;;
59052;SDS011;44843;44.728;10.396;2022-12-29T03:09:47;88.80;;;35.05;;
59052;SDS011;44843;44.728;10.396;2022-12-29T03:12:25;77.32;;;34.03;;
59052;SDS011;44843;44.728;10.396;2022-12-29T03:15:13;74.63;;;32.22;;
59052;SDS011;44843;44.728;10.396;2022-12-29T03:18:10;75.53;;;31.42;;
59052;SDS011;44843;44.728;10.396;2022-12-29T03:20:49;72.85;;;32.58;;
59052;SDS011;44843;44.728;10.396;2022-12-29T03:23:16;72.93;;;31.23;;
59052;SDS011;44843;44.728;10.396;2022-12-29T03:25:49;67.85;;;32.08;;
59052;SDS011;44843;44.728;10.396;2022-12-29T03:28:20;76.45;;;32.78;;
59052;SDS011;44843;44.728;10.396;2022-12-29T03:30:49;70.45;;;32.83;;
59052;SDS011;44843;44.728;10.396;2022-12-29T03:33:16;69.07;;;30.45;;
59052;SDS011;44843;44.728;10.396;2022-12-29T03:35:45;73.28;;;30.98;;
59052;SDS011;44843;44.728;10.396;2022-12-29T03:38:19;73.32;;;33.30;;
59052;SDS011;44843;44.728;10.396;2022-12-29T03:40:52;68.90;;;30.33;;
59052;SDS011;44843;44.728;10.396;2022-12-29T03:43:21;70.88;;;30.90;;
59052;SDS011;44843;44.728;10.396;2022-12-29T03:45:47;70.80;;;32.25;;
59052;SDS011;44843;44.728;10.396;2022-12-29T03:48:13;67.75;;;32.10;;
59052;SDS011;44843;44.728;10.396;2022-12-29T03:50:38;68.03;;;29.48;;
59052;SDS011;44843;44.728;10.396;2022-12-29T03:53:03;77.05;;;33.50;;
59052;SDS011;44843;44.728;10.396;2022-12-29T03:55:29;65.07;;;30.60;;
59052;SDS011;44843;44.728;10.396;2022-12-29T03:57:54;71.47;;;32.50;;
59052;SDS011;44843;44.728;10.396;2022-12-29T04:00:20;72.68;;;33.25;;
59052;SDS011;44843;44.728;10.396;2022-12-29T04:02:46;71.55;;;31.90;;
59052;SDS011;44843;44.728;10.396;2022-12-29T04:05:11;76.38;;;34.10;;
59052;SDS011;44843;44.728;10.396;2022-12-29T04:07:37;79.78;;;35.15;;
59052;SDS011;44843;44.728;10.396;2022-12-29T04:10:02;72.57;;;33.20;;
59052;SDS011;44843;44.728;10.396;2022-12-29T04:12:28;79.30;;;33.35;;
59052;SDS011;44843;44.728;10.396;2022-12-29T04:14:53;75.35;;;32.72;;
59052;SDS011;44843;44.728;10.396;2022-12-29T04:17:19;74.22;;;33.03;;
59052;SDS011;44843;44.728;10.396;2022-12-29T04:19:44;70.50;;;33.60;;
59052;SDS011;44843;44.728;10.396;2022-12-29T04:22:10;74.82;;;34.95;;
59052;SDS011;44843;44.728;10.396;2022-12-29T04:24:36;80.32;;;32.55;;
59052;SDS011;44843;44.728;10.396;2022-12-29T04:27:02;76.20;;;34.15;;
59052;SDS011;44843;44.728;10.396;2022-12-29T04:29:27;75.35;;;34.85;;
59052;SDS011;44843;44.728;10.396;2022-12-29T04:31:53;82.40;;;33.80;;
59052;SDS011;44843;44.728;10.396;2022-12-29T04:34:18;78.30;;;34.22;;
59052;SDS011;44843;44.728;10.396;2022-12-29T04:36:43;75.13;;;33.95;;
59052;SDS011;44843;44.728;10.396;2022-12-29T04:39:09;78.45;;;34.10;;
59052;SDS011;44843;44.728;10.396;2022-12-29T04:41:34;86.05;;;34.50;;
59052;SDS011;44843;44.728;10.396;2022-12-29T04:43:59;80.15;;;34.70;;
59052;SDS011;44843;44.728;10.396;2022-12-29T04:46:25;82.88;;;35.17;;
59052;SDS011;44843;44.728;10.396;2022-12-29T04:48:50;87.30;;;36.20;;
59052;SDS011;44843;44.728;10.396;2022-12-29T04:51:16;81.82;;;33.20;;
59052;SDS011;44843;44.728;10.396;2022-12-29T04:53:41;79.72;;;34.75;;
59052;SDS011;44843;44.728;10.396;2022-12-29T04:56:07;87.65;;;35.80;;
59052;SDS011;44843;44.728;10.396;2022-12-29T04:58:34;87.25;;;37.17;;
59052;SDS011;44843;44.728;10.396;2022-12-29T05:00:59;91.07;;;38.22;;
59052;SDS011;44843;44.728;10.396;2022-12-29T05:03:25;88.88;;;36.15;;
59052;SDS011;44843;44.728;10.396;2022-12-29T05:05:53;94.22;;;34.92;;
59052;SDS011;44843;44.728;10.396;2022-12-29T05:08:19;93.50;;;37.55;;
59052;SDS011;44843;44.728;10.396;2022-12-29T05:10:45;92.72;;;36.65;;
59052;SDS011;44843;44.728;10.396;2022-12-29T05:13:10;86.45;;;36.63;;
59052;SDS011;44843;44.728;10.396;2022-12-29T05:15:36;86.00;;;36.33;;
59052;SDS011;44843;44.728;10.396;2022-12-29T05:18:01;90.78;;;36.58;;
59052;SDS011;44843;44.728;10.396;2022-12-29T05:20:26;90.70;;;36.30;;
59052;SDS011;44843;44.728;10.396;2022-12-29T05:22:52;85.32;;;35.22;;
59052;SDS011;44843;44.728;10.396;2022-12-29T05:25:17;86.45;;;35.95;;
59052;SDS011;44843;44.728;10.396;2022-12-29T05:27:42;88.30;;;36.35;;
59052;SDS011;44843;44.728;10.396;2022-12-29T05:30:08;86.78;;;36.35;;
59052;SDS011;44843;44.728;10.396;2022-12-29T05:32:34;84.90;;;35.00;;
59052;SDS011;44843;44.728;10.396;2022-12-29T05:34:59;87.45;;;36.05;;
59052;SDS011;44843;44.728;10.396;2022-12-29T05:37:25;94.63;;;37.78;;
59052;SDS011;44843;44.728;10.396;2022-12-29T05:39:50;86.70;;;36.22;;
59052;SDS011;44843;44.728;10.396;2022-12-29T05:42:15;87.15;;;37.15;;
59052;SDS011;44843;44.728;10.396;2022-12-29T05:44:41;94.20;;;35.15;;
59052;SDS011;44843;44.728;10.396;2022-12-29T05:47:06;90.13;;;34.33;;
59052;SDS011;44843;44.728;10.396;2022-12-29T05:49:32;90.03;;;35.55;;
59052;SDS011;44843;44.728;10.396;2022-12-29T05:51:57;89.00;;;35.80;;
59052;SDS011;44843;44.728;10.396;2022-12-29T05:54:23;85.68;;;35.97;;
59052;SDS011;44843;44.728;10.396;2022-12-29T05:56:48;92.70;;;37.55;;
59052;SDS011;44843;44.728;10.396;2022-12-29T05:59:14;93.63;;;38.10;;
59052;SDS011;44843;44.728;10.396;2022-12-29T06:01:39;94.68;;;35.95;;
59052;SDS011;44843;44.728;10.396;2022-12-29T06:04:04;92.97;;;36.17;;
59052;SDS011;44843;44.728;10.396;2022-12-29T06:06:30;87.15;;;36.30;;
59052;SDS011;44843;44.728;10.396;2022-12-29T06:08:55;94.70;;;35.65;;
59052;SDS011;44843;44.728;10.396;2022-12-29T06:11:20;91.90;;;36.55;;
59052;SDS011;44843;44.728;10.396;2022-12-29T06:13:46;98.18;;;37.13;;
59052;SDS011;44843;44.728;10.396;2022-12-29T06:16:11;110.22;;;39.65;;
59052;SDS011;44843;44.728;10.396;2022-12-29T06:18:36;96.85;;;36.35;;
59052;SDS011;44843;44.728;10.396;2022-12-29T06:21:02;92.82;;;35.63;;
59052;SDS011;44843;44.728;10.396;2022-12-29T06:23:29;92.82;;;36.50;;
59052;SDS011;44843;44.728;10.396;2022-12-29T06:25:54;100.07;;;36.88;;
59052;SDS011;44843;44.728;10.396;2022-12-29T06:28:20;95.45;;;35.63;;
59052;SDS011;44843;44.728;10.396;2022-12-29T06:30:45;95.50;;;36.58;;
59052;SDS011;44843;44.728;10.396;2022-12-29T06:33:11;85.07;;;36.55;;
59052;SDS011;44843;44.728;10.396;2022-12-29T06:35:37;103.95;;;37.28;;
59052;SDS011;44843;44.728;10.396;2022-12-29T06:38:03;82.07;;;33.63;;
59052;SDS011;44843;44.728;10.396;2022-12-29T06:40:28;96.50;;;36.65;;
59052;SDS011;44843;44.728;10.396;2022-12-29T06:42:54;95.93;;;37.10;;
59052;SDS011;44843;44.728;10.396;2022-12-29T06:45:19;100.57;;;37.20;;
59052;SDS011;44843;44.728;10.396;2022-12-29T06:47:45;96.78;;;36.10;;
59052;SDS011;44843;44.728;10.396;2022-12-29T06:50:10;98.15;;;35.78;;
59052;SDS011;44843;44.728;10.396;2022-12-29T06:52:35;92.13;;;35.95;;
59052;SDS011;44843;44.728;10.396;2022-12-29T06:55:01;102.97;;;37.35;;
59052;SDS011;44843;44.728;10.396;2022-12-29T06:57:26;85.95;;;34.55;;
59052;SDS011;44843;44.728;10.396;2022-12-29T06:59:52;90.30;;;36.20;;
59052;SDS011;44843;44.728;10.396;2022-12-29T07:02:20;94.90;;;35.80;;
59052;SDS011;44843;44.728;10.396;2022-12-29T07:04:46;89.40;;;35.42;;
59052;SDS011;44843;44.728;10.396;2022-12-29T07:07:11;89.78;;;34.67;;
59052;SDS011;44843;44.728;10.396;2022-12-29T07:09:36;88.95;;;34.58;;
59052;SDS011;44843;44.728;10.396;2022-12-29T07:12:02;94.75;;;36.47;;
59052;SDS011;44843;44.728;10.396;2022-12-29T07:14:27;98.00;;;35.40;;
59052;SDS011;44843;44.728;10.396;2022-12-29T07:16:53;93.88;;;36.10;;
59052;SDS011;44843;44.728;10.396;2022-12-29T07:19:18;99.28;;;36.15;;
59052;SDS011;44843;44.728;10.396;2022-12-29T07:21:44;93.30;;;35.33;;
59052;SDS011;44843;44.728;10.396;2022-12-29T07:24:09;93.88;;;37.08;;
59052;SDS011;44843;44.728;10.396;2022-12-29T07:26:34;93.13;;;36.80;;
59052;SDS011;44843;44.728;10.396;2022-12-29T07:29:01;97.78;;;35.50;;
59052;SDS011;44843;44.728;10.396;2022-12-29T07:31:27;94.00;;;33.70;;
59052;SDS011;44843;44.728;10.396;2022-12-29T07:33:53;87.10;;;32.58;;
59052;SDS011;44843;44.728;10.396;2022-12-29T07:36:19;90.55;;;35.10;;
59052;SDS011;44843;44.728;10.396;2022-12-29T07:38:44;91.03;;;34.47;;
59052;SDS011;44843;44.728;10.396;2022-12-29T07:41:10;101.90;;;37.17;;
59052;SDS011;44843;44.728;10.396;2022-12-29T07:43:35;90.95;;;34.63;;
59052;SDS011;44843;44.728;10.396;2022-12-29T07:46:00;94.05;;;35.30;;
59052;SDS011;44843;44.728;10.396;2022-12-29T07:48:26;85.85;;;34.53;;
59052;SDS011;44843;44.728;10.396;2022-12-29T07:50:51;99.03;;;37.65;;
59052;SDS011;44843;44.728;10.396;2022-12-29T07:53:17;96.55;;;36.35;;
59052;SDS011;44843;44.728;10.396;2022-12-29T07:55:43;90.80;;;34.95;;
59052;SDS011;44843;44.728;10.396;2022-12-29T07:58:11;105.10;;;36.35;;
59052;SDS011;44843;44.728;10.396;2022-12-29T08:00:37;95.00;;;34.55;;
59052;SDS011;44843;44.728;10.396;2022-12-29T08:03:03;96.88;;;36.83;;
59052;SDS011;44843;44.728;10.396;2022-12-29T08:05:30;90.25;;;34.80;;
59052;SDS011;44843;44.728;10.396;2022-12-29T08:07:56;95.32;;;37.53;;
59052;SDS011;44843;44.728;10.396;2022-12-29T08:10:22;87.97;;;33.80;;
59052;SDS011;44843;44.728;10.396;2022-12-29T08:12:47;89.88;;;34.50;;
59052;SDS011;44843;44.728;10.396;2022-12-29T08:15:12;92.82;;;36.10;;
59052;SDS011;44843;44.728;10.396;2022-12-29T08:17:38;90.03;;;35.33;;
59052;SDS011;44843;44.728;10.396;2022-12-29T08:20:04;93.10;;;36.80;;
59052;SDS011;44843;44.728;10.396;2022-12-29T08:22:30;89.22;;;33.92;;
59052;SDS011;44843;44.728;10.396;2022-12-29T08:24:55;97.63;;;35.17;;
59052;SDS011;44843;44.728;10.396;2022-12-29T08:27:20;78.40;;;33.38;;
59052;SDS011;44843;44.728;10.396;2022-12-29T08:29:46;97.30;;;35.33;;
59052;SDS011;44843;44.728;10.396;2022-12-29T08:32:11;88.85;;;36.60;;
59052;SDS011;44843;44.728;10.396;2022-12-29T08:34:37;93.93;;;35.72;;
59052;SDS011;44843;44.728;10.396;2022-12-29T08:37:03;88.63;;;35.85;;
59052;SDS011;44843;44.728;10.396;2022-12-29T08:39:28;96.38;;;35.63;;
59052;SDS011;44843;44.728;10.396;2022-12-29T08:41:54;90.05;;;34.80;;
59052;SDS011;44843;44.728;10.396;2022-12-29T08:44:19;84.50;;;32.45;;
59052;SDS011;44843;44.728;10.396;2022-12-29T08:46:45;96.85;;;35.40;;
59052;SDS011;44843;44.728;10.396;2022-12-29T08:49:10;84.85;;;33.55;;
59052;SDS011;44843;44.728;10.396;2022-12-29T08:51:36;92.65;;;35.65;;
59052;SDS011;44843;44.728;10.396;2022-12-29T08:54:01;78.70;;;32.28;;
59052;SDS011;44843;44.728;10.396;2022-12-29T08:56:27;98.13;;;36.40;;
59052;SDS011;44843;44.728;10.396;2022-12-29T08:58:53;80.90;;;33.17;;
59052;SDS011;44843;44.728;10.396;2022-12-29T09:01:18;95.30;;;35.85;;
59052;SDS011;44843;44.728;10.396;2022-12-29T09:03:44;83.10;;;33.55;;
59052;SDS011;44843;44.728;10.396;2022-12-29T09:06:10;90.30;;;34.58;;
59052;SDS011;44843;44.728;10.396;2022-12-29T09:08:37;81.07;;;32.90;;
59052;SDS011;44843;44.728;10.396;2022-12-29T09:11:06;81.50;;;32.30;;
59052;SDS011;44843;44.728;10.396;2022-12-29T09:13:37;91.97;;;34.00;;
59052;SDS011;44843;44.728;10.396;2022-12-29T09:16:03;87.43;;;33.95;;
59052;SDS011;44843;44.728;10.396;2022-12-29T09:18:29;92.57;;;33.50;;
59052;SDS011;44843;44.728;10.396;2022-12-29T09:20:59;85.82;;;34.10;;
59052;SDS011;44843;44.728;10.396;2022-12-29T09:23:26;90.57;;;36.20;;
59052;SDS011;44843;44.728;10.396;2022-12-29T09:25:52;94.45;;;34.10;;
59052;SDS011;44843;44.728;10.396;2022-12-29T09:28:18;89.80;;;34.67;;
59052;SDS011;44843;44.728;10.396;2022-12-29T09:30:44;86.10;;;34.53;;
59052;SDS011;44843;44.728;10.396;2022-12-29T09:33:10;92.72;;;34.63;;
59052;SDS011;44843;44.728;10.396;2022-12-29T09:35:35;92.85;;;36.22;;
59052;SDS011;44843;44.728;10.396;2022-12-29T09:38:01;90.97;;;35.15;;
59052;SDS011;44843;44.728;10.396;2022-12-29T09:40:30;99.15;;;34.53;;
59052;SDS011;44843;44.728;10.396;2022-12-29T09:45:45;100.90;;;34.22;;
59052;SDS011;44843;44.728;10.396;2022-12-29T09:48:29;100.82;;;36.35;;
59052;SDS011;44843;44.728;10.396;2022-12-29T09:50:58;109.03;;;37.53;;
59052;SDS011;44843;44.728;10.396;2022-12-29T09:56:21;105.03;;;37.25;;
59052;SDS011;44843;44.728;10.396;2022-12-29T09:58:51;106.90;;;39.03;;
59052;SDS011;44843;44.728;10.396;2022-12-29T10:03:54;101.35;;;36.33;;
59052;SDS011;44843;44.728;10.396;2022-12-29T10:26:13;100.18;;;36.33;;
59052;SDS011;44843;44.728;10.396;2022-12-29T10:31:30;98.18;;;36.83;;
59052;SDS011;44843;44.728;10.396;2022-12-29T10:34:01;114.03;;;39.45;;
59052;SDS011;44843;44.728;10.396;2022-12-29T10:36:40;122.47;;;40.30;;
59052;SDS011;44843;44.728;10.396;2022-12-29T10:41:53;118.70;;;38.90;;
59052;SDS011;44843;44.728;10.396;2022-12-29T10:44:29;117.43;;;41.42;;
59052;SDS011;44843;44.728;10.396;2022-12-29T10:47:03;122.95;;;39.90;;
59052;SDS011;44843;44.728;10.396;2022-12-29T10:49:31;127.35;;;40.08;;
59052;SDS011;44843;44.728;10.396;2022-12-29T10:52:02;116.82;;;41.15;;
59052;SDS011;44843;44.728;10.396;2022-12-29T10:57:33;128.90;;;40.70;;
59052;SDS011;44843;44.728;10.396;2022-12-29T11:00:12;118.32;;;41.10;;
59052;SDS011;44843;44.728;10.396;2022-12-29T11:05:10;112.68;;;38.30;;
59052;SDS011;44843;44.728;10.396;2022-12-29T11:07:46;108.38;;;38.58;;
59052;SDS011;44843;44.728;10.396;2022-12-29T11:10:21;108.38;;;37.33;;
59052;SDS011;44843;44.728;10.396;2022-12-29T11:12:59;102.65;;;36.95;;
59052;SDS011;44843;44.728;10.396;2022-12-29T11:15:27;111.75;;;38.25;;
59052;SDS011;44843;44.728;10.396;2022-12-29T11:17:53;109.45;;;37.20;;
59052;SDS011;44843;44.728;10.396;2022-12-29T11:20:36;111.10;;;38.88;;
59052;SDS011;44843;44.728;10.396;2022-12-29T11:23:03;105.65;;;39.17;;
59052;SDS011;44843;44.728;10.396;2022-12-29T11:25:30;113.75;;;39.08;;
59052;SDS011;44843;44.728;10.396;2022-12-29T11:30:56;96.53;;;35.35;;
59052;SDS011;44843;44.728;10.396;2022-12-29T11:33:27;98.35;;;34.35;;
59052;SDS011;44843;44.728;10.396;2022-12-29T11:35:56;82.85;;;32.85;;
59052;SDS011;44843;44.728;10.396;2022-12-29T11:38:37;91.47;;;33.38;;
59052;SDS011;44843;44.728;10.396;2022-12-29T11:41:05;103.10;;;35.08;;
59052;SDS011;44843;44.728;10.396;2022-12-29T11:43:32;97.63;;;34.53;;
59052;SDS011;44843;44.728;10.396;2022-12-29T11:46:02;91.43;;;35.15;;
59052;SDS011;44843;44.728;10.396;2022-12-29T11:48:29;87.50;;;32.95;;
59052;SDS011;44843;44.728;10.396;2022-12-29T11:50:59;89.40;;;33.88;;
59052;SDS011;44843;44.728;10.396;2022-12-29T11:53:32;96.75;;;33.22;;
59052;SDS011;44843;44.728;10.396;2022-12-29T11:56:02;82.85;;;33.13;;
59052;SDS011;44843;44.728;10.396;2022-12-29T11:58:31;91.95;;;34.45;;
59052;SDS011;44843;44.728;10.396;2022-12-29T12:01:03;95.05;;;34.08;;
59052;SDS011;44843;44.728;10.396;2022-12-29T12:03:36;96.03;;;35.65;;
59052;SDS011;44843;44.728;10.396;2022-12-29T12:06:10;98.30;;;37.27;;
59052;SDS011;44843;44.728;10.396;2022-12-29T12:11:18;105.45;;;36.28;;
59052;SDS011;44843;44.728;10.396;2022-12-29T12:16:22;101.30;;;36.90;;
59052;SDS011;44843;44.728;10.396;2022-12-29T12:18:53;100.20;;;36.05;;
59052;SDS011;44843;44.728;10.396;2022-12-29T12:24:05;99.65;;;35.15;;
59052;SDS011;44843;44.728;10.396;2022-12-29T12:26:59;92.88;;;35.95;;
59052;SDS011;44843;44.728;10.396;2022-12-29T12:29:38;105.20;;;37.03;;
59052;SDS011;44843;44.728;10.396;2022-12-29T12:34:43;83.22;;;31.17;;
59052;SDS011;44843;44.728;10.396;2022-12-29T12:39:45;83.80;;;32.85;;
59052;SDS011;44843;44.728;10.396;2022-12-29T12:53:29;81.78;;;29.55;;
59052;SDS011;44843;44.728;10.396;2022-12-29T13:04:52;83.18;;;27.55;;
59052;SDS011;44843;44.728;10.396;2022-12-29T13:10:33;78.35;;;29.13;;
59052;SDS011;44843;44.728;10.396;2022-12-29T13:25:02;71.63;;;28.05;;
59052;SDS011;44843;44.728;10.396;2022-12-29T13:27:40;78.28;;;28.45;;
59052;SDS011;44843;44.728;10.396;2022-12-29T13:30:17;80.95;;;30.35;;
59052;SDS011;44843;44.728;10.396;2022-12-29T13:38:38;81.75;;;30.63;;
59052;SDS011;44843;44.728;10.396;2022-12-29T13:41:12;88.80;;;33.50;;
59052;SDS011;44843;44.728;10.396;2022-12-29T13:43:43;95.75;;;36.70;;
59052;SDS011;44843;44.728;10.396;2022-12-29T13:46:13;87.53;;;31.70;;
59052;SDS011;44843;44.728;10.396;2022-12-29T13:48:56;92.75;;;33.85;;
59052;SDS011;44843;44.728;10.396;2022-12-29T13:51:26;94.38;;;32.55;;
59052;SDS011;44843;44.728;10.396;2022-12-29T13:56:26;98.13;;;32.70;;
59052;SDS011;44843;44.728;10.396;2022-12-29T14:01:56;86.13;;;32.05;;
59052;SDS011;44843;44.728;10.396;2022-12-29T14:04:27;91.88;;;34.97;;
59052;SDS011;44843;44.728;10.396;2022-12-29T14:07:05;92.30;;;33.85;;
59052;SDS011;44843;44.728;10.396;2022-12-29T14:09:56;79.25;;;32.17;;
59052;SDS011;44843;44.728;10.396;2022-12-29T14:15:01;88.97;;;33.25;;
59052;SDS011;44843;44.728;10.396;2022-12-29T14:17:36;80.95;;;30.67;;
59052;SDS011;44843;44.728;10.396;2022-12-29T14:20:04;75.65;;;27.48;;
59052;SDS011;44843;44.728;10.396;2022-12-29T14:22:49;74.28;;;27.65;;
59052;SDS011;44843;44.728;10.396;2022-12-29T14:28:23;73.35;;;26.33;;
59052;SDS011;44843;44.728;10.396;2022-12-29T14:30:51;72.43;;;27.10;;
59052;SDS011;44843;44.728;10.396;2022-12-29T14:33:18;75.35;;;27.52;;
59052;SDS011;44843;44.728;10.396;2022-12-29T14:35:45;70.38;;;28.92;;
59052;SDS011;44843;44.728;10.396;2022-12-29T14:38:17;88.43;;;35.95;;
59052;SDS011;44843;44.728;10.396;2022-12-29T14:40:45;85.80;;;34.65;;
59052;SDS011;44843;44.728;10.396;2022-12-29T14:43:29;74.80;;;31.83;;
59052;SDS011;44843;44.728;10.396;2022-12-29T14:45:56;74.63;;;30.83;;
59052;SDS011;44843;44.728;10.396;2022-12-29T14:51:01;96.75;;;37.38;;
59052;SDS011;44843;44.728;10.396;2022-12-29T14:56:18;110.32;;;41.42;;
59052;SDS011;44843;44.728;10.396;2022-12-29T14:58:56;93.90;;;37.78;;
59052;SDS011;44843;44.728;10.396;2022-12-29T15:01:26;91.38;;;34.88;;
59052;SDS011;44843;44.728;10.396;2022-12-29T15:03:53;93.50;;;35.55;;
59052;SDS011;44843;44.728;10.396;2022-12-29T15:06:23;84.82;;;34.10;;
59052;SDS011;44843;44.728;10.396;2022-12-29T15:14:01;85.65;;;33.90;;
59052;SDS011;44843;44.728;10.396;2022-12-29T15:18:56;82.13;;;34.05;;
59052;SDS011;44843;44.728;10.396;2022-12-29T15:21:27;102.93;;;38.97;;
59052;SDS011;44843;44.728;10.396;2022-12-29T15:23:56;84.05;;;34.47;;
59052;SDS011;44843;44.728;10.396;2022-12-29T15:26:22;86.70;;;32.80;;
59052;SDS011;44843;44.728;10.396;2022-12-29T15:28:49;83.63;;;32.72;;
59052;SDS011;44843;44.728;10.396;2022-12-29T15:31:20;85.45;;;33.80;;
59052;SDS011;44843;44.728;10.396;2022-12-29T15:33:49;81.05;;;32.45;;
59052;SDS011;44843;44.728;10.396;2022-12-29T15:36:26;84.70;;;32.22;;
59052;SDS011;44843;44.728;10.396;2022-12-29T15:38:53;84.93;;;31.88;;
59052;SDS011;44843;44.728;10.396;2022-12-29T15:44:25;89.97;;;33.42;;
59052;SDS011;44843;44.728;10.396;2022-12-29T15:46:54;81.53;;;30.55;;
59052;SDS011;44843;44.728;10.396;2022-12-29T15:49:20;88.40;;;33.17;;
59052;SDS011;44843;44.728;10.396;2022-12-29T15:51:45;87.82;;;32.97;;
59052;SDS011;44843;44.728;10.396;2022-12-29T15:54:18;90.93;;;33.35;;
59052;SDS011;44843;44.728;10.396;2022-12-29T15:56:46;80.93;;;31.77;;
59052;SDS011;44843;44.728;10.396;2022-12-29T15:59:28;86.07;;;32.25;;
59052;SDS011;44843;44.728;10.396;2022-12-29T16:01:56;79.18;;;32.28;;
59052;SDS011;44843;44.728;10.396;2022-12-29T16:04:24;79.88;;;31.25;;
59052;SDS011;44843;44.728;10.396;2022-12-29T16:07:02;82.53;;;30.63;;
59052;SDS011;44843;44.728;10.396;2022-12-29T16:12:05;83.50;;;31.40;;
59052;SDS011;44843;44.728;10.396;2022-12-29T16:14:42;85.70;;;30.80;;
59052;SDS011;44843;44.728;10.396;2022-12-29T16:17:12;85.43;;;33.50;;
59052;SDS011;44843;44.728;10.396;2022-12-29T16:19:41;86.40;;;33.50;;
59052;SDS011;44843;44.728;10.396;2022-12-29T16:22:17;92.18;;;34.67;;
59052;SDS011;44843;44.728;10.396;2022-12-29T16:24:55;85.65;;;33.92;;
59052;SDS011;44843;44.728;10.396;2022-12-29T16:27:30;88.63;;;33.22;;
59052;SDS011;44843;44.728;10.396;2022-12-29T16:29:56;90.35;;;34.22;;
59052;SDS011;44843;44.728;10.396;2022-12-29T16:32:26;91.28;;;33.28;;
59052;SDS011;44843;44.728;10.396;2022-12-29T16:37:43;78.75;;;32.03;;
59052;SDS011;44843;44.728;10.396;2022-12-29T16:40:28;85.85;;;31.83;;
59052;SDS011;44843;44.728;10.396;2022-12-29T16:42:56;91.93;;;32.13;;
59052;SDS011;44843;44.728;10.396;2022-12-29T16:50:38;84.05;;;31.30;;
59052;SDS011;44843;44.728;10.396;2022-12-29T16:55:53;82.88;;;33.95;;
59052;SDS011;44843;44.728;10.396;2022-12-29T16:58:24;78.10;;;33.15;;
59052;SDS011;44843;44.728;10.396;2022-12-29T17:00:54;96.18;;;33.60;;
59052;SDS011;44843;44.728;10.396;2022-12-29T17:03:24;88.22;;;33.42;;
59052;SDS011;44843;44.728;10.396;2022-12-29T17:05:56;94.45;;;34.83;;